sensor_id;sensor_type;location;lat;lon;timestamp;P1;durP1;ratioP1;P2;durP2;ratioP2
21251;SDS011;10784;50.578;17.878;2022-12-19T00:01:56;146.98;;;42.97;;
21251;SDS011;10784;50.578;17.878;2022-12-19T00:04:29;183.13;;;48.72;;
21251;SDS011;10784;50.578;17.878;2022-12-19T00:07:02;125.50;;;41.40;;
21251;SDS011;10784;50.578;17.878;2022-12-19T00:09:35;146.43;;;39.88;;
21251;SDS011;10784;50.578;17.878;2022-12-19T00:12:08;149.18;;;39.88;;
21251;SDS011;10784;50.578;17.878;2022-12-19T00:14:48;135.32;;;38.38;;
21251;SDS011;10784;50.578;17.878;2022-12-19T00:17:21;153.15;;;41.25;;
21251;SDS011;10784;50.578;17.878;2022-12-19T00:19:54;136.45;;;41.80;;
21251;SDS011;10784;50.578;17.878;2022-12-19T00:22:27;154.25;;;41.85;;
21251;SDS011;10784;50.578;17.878;2022-12-19T00:24:59;130.60;;;38.75;;
21251;SDS011;10784;50.578;17.878;2022-12-19T00:27:33;139.95;;;42.55;;
21251;SDS011;10784;50.578;17.878;2022-12-19T00:30:06;129.55;;;38.67;;
21251;SDS011;10784;50.578;17.878;2022-12-19T00:32:39;127.05;;;42.83;;
21251;SDS011;10784;50.578;17.878;2022-12-19T00:35:11;112.80;;;38.22;;
21251;SDS011;10784;50.578;17.878;2022-12-19T00:37:46;122.25;;;44.72;;
21251;SDS011;10784;50.578;17.878;2022-12-19T00:40:20;126.30;;;39.33;;
21251;SDS011;10784;50.578;17.878;2022-12-19T00:42:55;124.15;;;38.35;;
21251;SDS011;10784;50.578;17.878;2022-12-19T00:45:30;129.35;;;40.75;;
21251;SDS011;10784;50.578;17.878;2022-12-19T00:48:03;128.75;;;37.38;;
21251;SDS011;10784;50.578;17.878;2022-12-19T00:50:37;117.25;;;37.72;;
21251;SDS011;10784;50.578;17.878;2022-12-19T00:53:10;114.47;;;38.38;;
21251;SDS011;10784;50.578;17.878;2022-12-19T00:55:42;123.20;;;36.90;;
21251;SDS011;10784;50.578;17.878;2022-12-19T00:58:15;122.97;;;39.83;;
21251;SDS011;10784;50.578;17.878;2022-12-19T01:00:48;119.03;;;37.10;;
21251;SDS011;10784;50.578;17.878;2022-12-19T01:03:21;160.48;;;42.80;;
21251;SDS011;10784;50.578;17.878;2022-12-19T01:05:54;121.38;;;38.13;;
21251;SDS011;10784;50.578;17.878;2022-12-19T01:08:28;131.13;;;39.25;;
21251;SDS011;10784;50.578;17.878;2022-12-19T01:11:02;122.07;;;36.50;;
21251;SDS011;10784;50.578;17.878;2022-12-19T01:13:37;113.20;;;36.25;;
21251;SDS011;10784;50.578;17.878;2022-12-19T01:16:13;124.97;;;37.45;;
21251;SDS011;10784;50.578;17.878;2022-12-19T01:18:46;148.20;;;41.10;;
21251;SDS011;10784;50.578;17.878;2022-12-19T01:21:18;114.25;;;37.65;;
21251;SDS011;10784;50.578;17.878;2022-12-19T01:23:51;115.85;;;38.10;;
21251;SDS011;10784;50.578;17.878;2022-12-19T01:26:24;125.75;;;39.50;;
21251;SDS011;10784;50.578;17.878;2022-12-19T01:28:57;120.15;;;35.47;;
21251;SDS011;10784;50.578;17.878;2022-12-19T01:31:31;95.53;;;33.88;;
21251;SDS011;10784;50.578;17.878;2022-12-19T01:34:06;115.15;;;37.63;;
21251;SDS011;10784;50.578;17.878;2022-12-19T01:36:39;103.20;;;33.95;;
21251;SDS011;10784;50.578;17.878;2022-12-19T01:39:12;111.60;;;35.22;;
21251;SDS011;10784;50.578;17.878;2022-12-19T01:41:45;121.47;;;37.05;;
21251;SDS011;10784;50.578;17.878;2022-12-19T01:44:18;116.70;;;35.03;;
21251;SDS011;10784;50.578;17.878;2022-12-19T01:46:51;113.85;;;34.85;;
21251;SDS011;10784;50.578;17.878;2022-12-19T01:49:27;113.22;;;32.28;;
21251;SDS011;10784;50.578;17.878;2022-12-19T01:52:01;91.28;;;31.40;;
21251;SDS011;10784;50.578;17.878;2022-12-19T01:54:35;101.72;;;32.45;;
21251;SDS011;10784;50.578;17.878;2022-12-19T01:57:10;84.00;;;32.05;;
21251;SDS011;10784;50.578;17.878;2022-12-19T01:59:47;110.57;;;35.00;;
21251;SDS011;10784;50.578;17.878;2022-12-19T02:02:25;109.22;;;32.95;;
21251;SDS011;10784;50.578;17.878;2022-12-19T02:04:59;84.72;;;28.00;;
21251;SDS011;10784;50.578;17.878;2022-12-19T02:07:32;98.68;;;29.58;;
21251;SDS011;10784;50.578;17.878;2022-12-19T02:10:07;79.97;;;25.08;;
21251;SDS011;10784;50.578;17.878;2022-12-19T02:12:41;79.78;;;25.27;;
21251;SDS011;10784;50.578;17.878;2022-12-19T02:15:16;69.35;;;25.65;;
21251;SDS011;10784;50.578;17.878;2022-12-19T02:26:01;81.60;;;29.58;;
21251;SDS011;10784;50.578;17.878;2022-12-19T02:31:30;87.75;;;25.80;;
21251;SDS011;10784;50.578;17.878;2022-12-19T02:36:51;85.72;;;24.92;;
21251;SDS011;10784;50.578;17.878;2022-12-19T02:42:08;84.97;;;28.27;;
21251;SDS011;10784;50.578;17.878;2022-12-19T02:44:46;66.15;;;23.35;;
21251;SDS011;10784;50.578;17.878;2022-12-19T02:47:21;74.97;;;27.45;;
21251;SDS011;10784;50.578;17.878;2022-12-19T02:49:54;87.57;;;24.38;;
21251;SDS011;10784;50.578;17.878;2022-12-19T02:55:05;76.72;;;26.50;;
21251;SDS011;10784;50.578;17.878;2022-12-19T02:57:42;88.15;;;25.70;;
21251;SDS011;10784;50.578;17.878;2022-12-19T03:00:20;73.22;;;23.35;;
21251;SDS011;10784;50.578;17.878;2022-12-19T03:08:07;76.40;;;24.60;;
21251;SDS011;10784;50.578;17.878;2022-12-19T03:13:18;70.00;;;24.30;;
21251;SDS011;10784;50.578;17.878;2022-12-19T03:15:52;72.43;;;23.77;;
21251;SDS011;10784;50.578;17.878;2022-12-19T03:18:25;62.45;;;20.92;;
21251;SDS011;10784;50.578;17.878;2022-12-19T03:23:35;60.65;;;20.60;;
21251;SDS011;10784;50.578;17.878;2022-12-19T03:26:17;71.40;;;21.30;;
21251;SDS011;10784;50.578;17.878;2022-12-19T03:29:08;63.05;;;22.23;;
21251;SDS011;10784;50.578;17.878;2022-12-19T03:31:42;78.63;;;21.25;;
21251;SDS011;10784;50.578;17.878;2022-12-19T03:36:51;88.43;;;22.98;;
21251;SDS011;10784;50.578;17.878;2022-12-19T03:39:25;62.90;;;19.88;;
21251;SDS011;10784;50.578;17.878;2022-12-19T03:41:59;68.80;;;23.30;;
21251;SDS011;10784;50.578;17.878;2022-12-19T03:44:51;91.78;;;23.80;;
21251;SDS011;10784;50.578;17.878;2022-12-19T03:50:04;74.32;;;22.40;;
21251;SDS011;10784;50.578;17.878;2022-12-19T03:52:44;72.15;;;22.33;;
21251;SDS011;10784;50.578;17.878;2022-12-19T03:55:20;70.10;;;21.43;;
21251;SDS011;10784;50.578;17.878;2022-12-19T03:57:56;64.95;;;23.60;;
21251;SDS011;10784;50.578;17.878;2022-12-19T04:00:31;67.13;;;22.10;;
21251;SDS011;10784;50.578;17.878;2022-12-19T04:03:05;69.18;;;22.40;;
21251;SDS011;10784;50.578;17.878;2022-12-19T04:05:38;83.72;;;23.40;;
21251;SDS011;10784;50.578;17.878;2022-12-19T04:08:13;71.75;;;20.55;;
21251;SDS011;10784;50.578;17.878;2022-12-19T04:10:47;93.32;;;21.80;;
21251;SDS011;10784;50.578;17.878;2022-12-19T04:13:40;66.80;;;19.40;;
21251;SDS011;10784;50.578;17.878;2022-12-19T04:16:17;75.28;;;23.73;;
21251;SDS011;10784;50.578;17.878;2022-12-19T04:18:58;67.25;;;22.40;;
21251;SDS011;10784;50.578;17.878;2022-12-19T04:21:35;54.47;;;21.52;;
21251;SDS011;10784;50.578;17.878;2022-12-19T04:24:16;62.30;;;19.58;;
21251;SDS011;10784;50.578;17.878;2022-12-19T04:26:51;58.58;;;20.00;;
21251;SDS011;10784;50.578;17.878;2022-12-19T04:29:25;62.60;;;21.55;;
21251;SDS011;10784;50.578;17.878;2022-12-19T04:32:01;51.35;;;20.05;;
21251;SDS011;10784;50.578;17.878;2022-12-19T04:34:34;72.82;;;21.13;;
21251;SDS011;10784;50.578;17.878;2022-12-19T04:37:13;64.55;;;21.10;;
21251;SDS011;10784;50.578;17.878;2022-12-19T04:39:46;69.30;;;21.60;;
21251;SDS011;10784;50.578;17.878;2022-12-19T04:42:19;66.20;;;21.73;;
21251;SDS011;10784;50.578;17.878;2022-12-19T04:44:52;66.00;;;19.15;;
21251;SDS011;10784;50.578;17.878;2022-12-19T04:47:24;62.42;;;20.55;;
21251;SDS011;10784;50.578;17.878;2022-12-19T04:49:57;51.90;;;16.00;;
21251;SDS011;10784;50.578;17.878;2022-12-19T04:52:30;58.53;;;22.70;;
21251;SDS011;10784;50.578;17.878;2022-12-19T04:55:02;59.72;;;21.00;;
21251;SDS011;10784;50.578;17.878;2022-12-19T04:57:35;50.60;;;21.23;;
21251;SDS011;10784;50.578;17.878;2022-12-19T05:00:08;74.00;;;21.42;;
21251;SDS011;10784;50.578;17.878;2022-12-19T05:02:41;65.13;;;19.92;;
21251;SDS011;10784;50.578;17.878;2022-12-19T05:05:14;52.67;;;18.38;;
21251;SDS011;10784;50.578;17.878;2022-12-19T05:07:49;61.28;;;19.33;;
21251;SDS011;10784;50.578;17.878;2022-12-19T05:10:23;54.40;;;17.35;;
21251;SDS011;10784;50.578;17.878;2022-12-19T05:12:55;52.67;;;17.45;;
21251;SDS011;10784;50.578;17.878;2022-12-19T05:15:28;51.22;;;15.32;;
21251;SDS011;10784;50.578;17.878;2022-12-19T05:18:01;53.63;;;19.67;;
21251;SDS011;10784;50.578;17.878;2022-12-19T05:20:35;38.25;;;14.82;;
21251;SDS011;10784;50.578;17.878;2022-12-19T05:23:08;64.05;;;18.88;;
21251;SDS011;10784;50.578;17.878;2022-12-19T05:25:48;51.70;;;15.77;;
21251;SDS011;10784;50.578;17.878;2022-12-19T05:28:21;50.92;;;17.85;;
21251;SDS011;10784;50.578;17.878;2022-12-19T05:31:13;34.15;;;15.23;;
21251;SDS011;10784;50.578;17.878;2022-12-19T05:33:47;34.30;;;14.98;;
21251;SDS011;10784;50.578;17.878;2022-12-19T05:36:19;53.40;;;16.10;;
21251;SDS011;10784;50.578;17.878;2022-12-19T05:38:53;53.72;;;17.63;;
21251;SDS011;10784;50.578;17.878;2022-12-19T05:41:25;50.35;;;16.63;;
21251;SDS011;10784;50.578;17.878;2022-12-19T05:43:58;40.80;;;16.30;;
21251;SDS011;10784;50.578;17.878;2022-12-19T05:46:31;39.67;;;13.07;;
21251;SDS011;10784;50.578;17.878;2022-12-19T05:49:04;37.70;;;13.80;;
21251;SDS011;10784;50.578;17.878;2022-12-19T05:51:37;31.60;;;12.82;;
21251;SDS011;10784;50.578;17.878;2022-12-19T05:54:10;33.00;;;13.35;;
21251;SDS011;10784;50.578;17.878;2022-12-19T05:56:43;35.00;;;11.82;;
21251;SDS011;10784;50.578;17.878;2022-12-19T05:59:16;33.88;;;12.25;;
21251;SDS011;10784;50.578;17.878;2022-12-19T06:01:49;46.97;;;13.88;;
21251;SDS011;10784;50.578;17.878;2022-12-19T06:04:22;33.85;;;14.73;;
21251;SDS011;10784;50.578;17.878;2022-12-19T06:06:54;36.40;;;14.88;;
21251;SDS011;10784;50.578;17.878;2022-12-19T06:09:27;50.08;;;14.30;;
21251;SDS011;10784;50.578;17.878;2022-12-19T06:12:00;42.00;;;14.60;;
21251;SDS011;10784;50.578;17.878;2022-12-19T06:14:33;45.50;;;15.00;;
21251;SDS011;10784;50.578;17.878;2022-12-19T06:17:05;53.45;;;17.13;;
21251;SDS011;10784;50.578;17.878;2022-12-19T06:19:38;52.58;;;18.45;;
21251;SDS011;10784;50.578;17.878;2022-12-19T06:22:11;42.25;;;17.75;;
21251;SDS011;10784;50.578;17.878;2022-12-19T06:24:44;39.28;;;14.55;;
21251;SDS011;10784;50.578;17.878;2022-12-19T06:27:17;41.38;;;15.77;;
21251;SDS011;10784;50.578;17.878;2022-12-19T06:29:50;44.05;;;15.45;;
21251;SDS011;10784;50.578;17.878;2022-12-19T06:32:22;46.60;;;14.85;;
21251;SDS011;10784;50.578;17.878;2022-12-19T06:34:55;44.40;;;16.88;;
21251;SDS011;10784;50.578;17.878;2022-12-19T06:37:36;40.05;;;16.77;;
21251;SDS011;10784;50.578;17.878;2022-12-19T06:40:11;42.33;;;16.00;;
21251;SDS011;10784;50.578;17.878;2022-12-19T06:43:03;38.00;;;14.80;;
21251;SDS011;10784;50.578;17.878;2022-12-19T06:45:36;38.85;;;13.93;;
21251;SDS011;10784;50.578;17.878;2022-12-19T06:48:09;49.30;;;16.02;;
21251;SDS011;10784;50.578;17.878;2022-12-19T06:50:42;42.92;;;15.88;;
21251;SDS011;10784;50.578;17.878;2022-12-19T06:53:18;43.75;;;14.85;;
21251;SDS011;10784;50.578;17.878;2022-12-19T06:55:54;53.58;;;15.82;;
21251;SDS011;10784;50.578;17.878;2022-12-19T06:58:27;54.08;;;16.70;;
21251;SDS011;10784;50.578;17.878;2022-12-19T07:01:00;42.38;;;13.40;;
21251;SDS011;10784;50.578;17.878;2022-12-19T07:03:37;53.38;;;14.77;;
21251;SDS011;10784;50.578;17.878;2022-12-19T07:06:11;37.33;;;16.50;;
21251;SDS011;10784;50.578;17.878;2022-12-19T07:08:44;47.33;;;15.98;;
21251;SDS011;10784;50.578;17.878;2022-12-19T07:11:17;54.10;;;15.98;;
21251;SDS011;10784;50.578;17.878;2022-12-19T07:13:50;35.60;;;13.23;;
21251;SDS011;10784;50.578;17.878;2022-12-19T07:16:23;29.35;;;11.80;;
21251;SDS011;10784;50.578;17.878;2022-12-19T07:18:57;43.30;;;14.68;;
21251;SDS011;10784;50.578;17.878;2022-12-19T07:21:30;57.55;;;16.25;;
21251;SDS011;10784;50.578;17.878;2022-12-19T07:24:03;39.25;;;13.68;;
21251;SDS011;10784;50.578;17.878;2022-12-19T07:26:36;37.22;;;15.23;;
21251;SDS011;10784;50.578;17.878;2022-12-19T07:29:09;30.10;;;11.98;;
21251;SDS011;10784;50.578;17.878;2022-12-19T07:31:43;39.70;;;16.05;;
21251;SDS011;10784;50.578;17.878;2022-12-19T07:34:15;36.80;;;13.63;;
21251;SDS011;10784;50.578;17.878;2022-12-19T07:36:48;41.35;;;12.27;;
21251;SDS011;10784;50.578;17.878;2022-12-19T07:39:24;41.85;;;12.32;;
21251;SDS011;10784;50.578;17.878;2022-12-19T07:41:57;37.65;;;12.27;;
21251;SDS011;10784;50.578;17.878;2022-12-19T07:44:40;49.80;;;15.45;;
21251;SDS011;10784;50.578;17.878;2022-12-19T07:47:13;38.65;;;12.98;;
21251;SDS011;10784;50.578;17.878;2022-12-19T07:49:46;32.17;;;11.82;;
21251;SDS011;10784;50.578;17.878;2022-12-19T07:52:19;31.27;;;14.07;;
21251;SDS011;10784;50.578;17.878;2022-12-19T07:54:52;42.25;;;15.15;;
21251;SDS011;10784;50.578;17.878;2022-12-19T07:57:25;28.60;;;12.68;;
21251;SDS011;10784;50.578;17.878;2022-12-19T07:59:57;42.13;;;15.00;;
21251;SDS011;10784;50.578;17.878;2022-12-19T08:02:30;38.72;;;13.60;;
21251;SDS011;10784;50.578;17.878;2022-12-19T08:05:04;24.77;;;13.05;;
21251;SDS011;10784;50.578;17.878;2022-12-19T08:07:37;31.30;;;13.85;;
21251;SDS011;10784;50.578;17.878;2022-12-19T08:10:10;41.40;;;14.07;;
21251;SDS011;10784;50.578;17.878;2022-12-19T08:12:44;40.42;;;13.27;;
21251;SDS011;10784;50.578;17.878;2022-12-19T08:15:17;38.30;;;13.43;;
21251;SDS011;10784;50.578;17.878;2022-12-19T08:17:50;33.95;;;12.15;;
21251;SDS011;10784;50.578;17.878;2022-12-19T08:20:24;35.15;;;12.85;;
21251;SDS011;10784;50.578;17.878;2022-12-19T08:22:57;26.27;;;12.52;;
21251;SDS011;10784;50.578;17.878;2022-12-19T08:25:30;44.13;;;14.48;;
21251;SDS011;10784;50.578;17.878;2022-12-19T08:28:03;39.00;;;11.68;;
21251;SDS011;10784;50.578;17.878;2022-12-19T08:30:39;32.97;;;14.30;;
21251;SDS011;10784;50.578;17.878;2022-12-19T08:33:12;26.83;;;11.15;;
21251;SDS011;10784;50.578;17.878;2022-12-19T08:35:45;31.60;;;10.73;;
21251;SDS011;10784;50.578;17.878;2022-12-19T08:38:18;29.67;;;13.30;;
21251;SDS011;10784;50.578;17.878;2022-12-19T08:40:53;28.60;;;13.30;;
21251;SDS011;10784;50.578;17.878;2022-12-19T08:43:26;26.27;;;9.25;;
21251;SDS011;10784;50.578;17.878;2022-12-19T08:45:59;22.05;;;12.80;;
21251;SDS011;10784;50.578;17.878;2022-12-19T08:48:32;21.25;;;9.13;;
21251;SDS011;10784;50.578;17.878;2022-12-19T08:51:06;28.92;;;12.27;;
21251;SDS011;10784;50.578;17.878;2022-12-19T08:53:40;25.45;;;12.82;;
21251;SDS011;10784;50.578;17.878;2022-12-19T08:56:15;25.23;;;12.60;;
21251;SDS011;10784;50.578;17.878;2022-12-19T08:58:51;22.23;;;10.82;;
21251;SDS011;10784;50.578;17.878;2022-12-19T09:01:24;12.35;;;8.43;;
21251;SDS011;10784;50.578;17.878;2022-12-19T09:03:58;24.13;;;9.65;;
21251;SDS011;10784;50.578;17.878;2022-12-19T09:06:50;22.08;;;10.73;;
21251;SDS011;10784;50.578;17.878;2022-12-19T09:09:23;27.52;;;12.10;;
21251;SDS011;10784;50.578;17.878;2022-12-19T09:11:56;34.50;;;10.10;;
21251;SDS011;10784;50.578;17.878;2022-12-19T09:14:32;20.80;;;10.95;;
21251;SDS011;10784;50.578;17.878;2022-12-19T09:17:05;25.73;;;12.85;;
21251;SDS011;10784;50.578;17.878;2022-12-19T09:19:38;13.45;;;7.72;;
21251;SDS011;10784;50.578;17.878;2022-12-19T09:22:16;26.00;;;8.88;;
21251;SDS011;10784;50.578;17.878;2022-12-19T09:24:49;25.15;;;9.35;;
21251;SDS011;10784;50.578;17.878;2022-12-19T09:27:22;20.67;;;9.32;;
21251;SDS011;10784;50.578;17.878;2022-12-19T09:29:55;26.48;;;8.38;;
21251;SDS011;10784;50.578;17.878;2022-12-19T09:32:28;16.70;;;9.15;;
21251;SDS011;10784;50.578;17.878;2022-12-19T09:35:01;28.00;;;10.60;;
21251;SDS011;10784;50.578;17.878;2022-12-19T09:37:34;30.00;;;8.27;;
21251;SDS011;10784;50.578;17.878;2022-12-19T09:40:09;30.67;;;11.07;;
21251;SDS011;10784;50.578;17.878;2022-12-19T09:46:14;14.57;;;9.48;;
21251;SDS011;10784;50.578;17.878;2022-12-19T09:48:23;34.63;;;10.73;;
21251;SDS011;10784;50.578;17.878;2022-12-19T09:51:02;19.75;;;12.15;;
21251;SDS011;10784;50.578;17.878;2022-12-19T09:53:51;19.23;;;9.55;;
21251;SDS011;10784;50.578;17.878;2022-12-19T09:56:30;29.75;;;9.32;;
21251;SDS011;10784;50.578;17.878;2022-12-19T09:59:30;25.00;;;11.60;;
21251;SDS011;10784;50.578;17.878;2022-12-19T10:04:54;16.17;;;9.27;;
21251;SDS011;10784;50.578;17.878;2022-12-19T10:07:51;19.42;;;7.93;;
21251;SDS011;10784;50.578;17.878;2022-12-19T10:21:39;15.77;;;8.13;;
21251;SDS011;10784;50.578;17.878;2022-12-19T10:27:51;11.43;;;5.95;;
21251;SDS011;10784;50.578;17.878;2022-12-19T10:30:35;14.88;;;6.10;;
21251;SDS011;10784;50.578;17.878;2022-12-19T10:33:20;14.73;;;5.15;;
21251;SDS011;10784;50.578;17.878;2022-12-19T10:35:57;10.68;;;5.82;;
21251;SDS011;10784;50.578;17.878;2022-12-19T10:38:35;11.85;;;7.38;;
21251;SDS011;10784;50.578;17.878;2022-12-19T10:41:27;12.60;;;5.47;;
21251;SDS011;10784;50.578;17.878;2022-12-19T10:44:14;11.98;;;6.93;;
21251;SDS011;10784;50.578;17.878;2022-12-19T10:46:48;19.48;;;6.95;;
21251;SDS011;10784;50.578;17.878;2022-12-19T10:49:23;20.23;;;7.57;;
21251;SDS011;10784;50.578;17.878;2022-12-19T10:52:01;8.10;;;4.55;;
21251;SDS011;10784;50.578;17.878;2022-12-19T10:59:53;17.55;;;5.97;;
21251;SDS011;10784;50.578;17.878;2022-12-19T11:16:32;6.85;;;4.85;;
21251;SDS011;10784;50.578;17.878;2022-12-19T11:19:33;6.05;;;3.92;;
21251;SDS011;10784;50.578;17.878;2022-12-19T11:22:30;25.83;;;7.35;;
21251;SDS011;10784;50.578;17.878;2022-12-19T11:25:41;15.23;;;5.38;;
21251;SDS011;10784;50.578;17.878;2022-12-19T11:28:34;17.88;;;6.38;;
21251;SDS011;10784;50.578;17.878;2022-12-19T11:31:28;11.93;;;6.30;;
21251;SDS011;10784;50.578;17.878;2022-12-19T11:34:22;24.95;;;8.38;;
21251;SDS011;10784;50.578;17.878;2022-12-19T11:39:47;14.70;;;7.97;;
21251;SDS011;10784;50.578;17.878;2022-12-19T11:42:26;16.05;;;6.72;;
21251;SDS011;10784;50.578;17.878;2022-12-19T11:45:10;14.82;;;7.97;;
21251;SDS011;10784;50.578;17.878;2022-12-19T11:47:55;14.63;;;6.35;;
21251;SDS011;10784;50.578;17.878;2022-12-19T11:50:31;17.63;;;7.00;;
21251;SDS011;10784;50.578;17.878;2022-12-19T11:56:03;9.30;;;4.90;;
21251;SDS011;10784;50.578;17.878;2022-12-19T11:58:48;13.93;;;6.07;;
21251;SDS011;10784;50.578;17.878;2022-12-19T12:01:31;24.30;;;8.18;;
21251;SDS011;10784;50.578;17.878;2022-12-19T12:07:01;15.77;;;6.65;;
21251;SDS011;10784;50.578;17.878;2022-12-19T12:10:15;16.20;;;8.75;;
21251;SDS011;10784;50.578;17.878;2022-12-19T12:37:14;18.52;;;9.48;;
21251;SDS011;10784;50.578;17.878;2022-12-19T12:45:38;16.65;;;6.45;;
21251;SDS011;10784;50.578;17.878;2022-12-19T12:50:55;17.50;;;6.18;;
21251;SDS011;10784;50.578;17.878;2022-12-19T12:53:32;20.60;;;9.02;;
21251;SDS011;10784;50.578;17.878;2022-12-19T12:56:06;22.67;;;8.80;;
21251;SDS011;10784;50.578;17.878;2022-12-19T13:01:24;21.58;;;9.02;;
21251;SDS011;10784;50.578;17.878;2022-12-19T13:11:53;18.40;;;8.05;;
21251;SDS011;10784;50.578;17.878;2022-12-19T13:14:50;21.05;;;8.98;;
21251;SDS011;10784;50.578;17.878;2022-12-19T13:17:27;26.35;;;10.02;;
21251;SDS011;10784;50.578;17.878;2022-12-19T13:28:34;24.85;;;9.27;;
21251;SDS011;10784;50.578;17.878;2022-12-19T13:39:40;20.65;;;8.30;;
21251;SDS011;10784;50.578;17.878;2022-12-19T13:42:34;18.70;;;8.95;;
21251;SDS011;10784;50.578;17.878;2022-12-19T13:45:47;14.35;;;6.80;;
21251;SDS011;10784;50.578;17.878;2022-12-19T13:51:06;21.83;;;8.55;;
21251;SDS011;10784;50.578;17.878;2022-12-19T13:53:39;15.48;;;7.30;;
21251;SDS011;10784;50.578;17.878;2022-12-19T13:56:16;14.40;;;6.40;;
21251;SDS011;10784;50.578;17.878;2022-12-19T13:58:50;20.75;;;8.48;;
21251;SDS011;10784;50.578;17.878;2022-12-19T14:03:58;20.30;;;8.57;;
21251;SDS011;10784;50.578;17.878;2022-12-19T14:06:41;14.18;;;6.78;;
21251;SDS011;10784;50.578;17.878;2022-12-19T14:09:22;10.88;;;7.05;;
21251;SDS011;10784;50.578;17.878;2022-12-19T14:12:30;14.68;;;8.52;;
21251;SDS011;10784;50.578;17.878;2022-12-19T14:15:48;23.35;;;8.15;;
21251;SDS011;10784;50.578;17.878;2022-12-19T14:18:25;15.85;;;7.03;;
21251;SDS011;10784;50.578;17.878;2022-12-19T14:21:17;11.85;;;6.20;;
21251;SDS011;10784;50.578;17.878;2022-12-19T14:24:14;15.35;;;7.20;;
21251;SDS011;10784;50.578;17.878;2022-12-19T14:26:54;15.30;;;7.68;;
21251;SDS011;10784;50.578;17.878;2022-12-19T14:29:49;22.65;;;10.73;;
21251;SDS011;10784;50.578;17.878;2022-12-19T14:32:45;17.10;;;8.35;;
21251;SDS011;10784;50.578;17.878;2022-12-19T14:35:43;21.17;;;9.52;;
21251;SDS011;10784;50.578;17.878;2022-12-19T14:38:39;32.55;;;11.48;;
21251;SDS011;10784;50.578;17.878;2022-12-19T14:41:35;36.95;;;12.35;;
21251;SDS011;10784;50.578;17.878;2022-12-19T14:44:46;29.80;;;11.18;;
21251;SDS011;10784;50.578;17.878;2022-12-19T14:47:39;23.67;;;8.85;;
21251;SDS011;10784;50.578;17.878;2022-12-19T14:50:36;14.32;;;8.60;;
21251;SDS011;10784;50.578;17.878;2022-12-19T14:53:29;15.00;;;7.22;;
21251;SDS011;10784;50.578;17.878;2022-12-19T14:56:22;19.55;;;7.28;;
21251;SDS011;10784;50.578;17.878;2022-12-19T15:00:00;15.13;;;7.47;;
21251;SDS011;10784;50.578;17.878;2022-12-19T15:04:45;22.48;;;8.20;;
21251;SDS011;10784;50.578;17.878;2022-12-19T15:07:26;11.05;;;6.50;;
21251;SDS011;10784;50.578;17.878;2022-12-19T15:16:04;17.57;;;9.23;;
21251;SDS011;10784;50.578;17.878;2022-12-19T15:18:38;16.98;;;6.70;;
21251;SDS011;10784;50.578;17.878;2022-12-19T15:21:12;21.17;;;8.77;;
21251;SDS011;10784;50.578;17.878;2022-12-19T15:23:45;23.30;;;8.73;;
21251;SDS011;10784;50.578;17.878;2022-12-19T15:26:26;18.95;;;7.88;;
21251;SDS011;10784;50.578;17.878;2022-12-19T15:29:01;60.03;;;11.85;;
21251;SDS011;10784;50.578;17.878;2022-12-19T15:37:14;15.98;;;7.15;;
21251;SDS011;10784;50.578;17.878;2022-12-19T15:39:47;21.88;;;7.35;;
21251;SDS011;10784;50.578;17.878;2022-12-19T15:42:20;18.88;;;7.78;;
21251;SDS011;10784;50.578;17.878;2022-12-19T15:44:54;24.73;;;9.32;;
21251;SDS011;10784;50.578;17.878;2022-12-19T15:47:30;16.15;;;7.45;;
21251;SDS011;10784;50.578;17.878;2022-12-19T15:50:37;11.00;;;6.85;;
21251;SDS011;10784;50.578;17.878;2022-12-19T15:53:04;17.98;;;10.18;;
21251;SDS011;10784;50.578;17.878;2022-12-19T15:55:57;16.65;;;7.80;;
21251;SDS011;10784;50.578;17.878;2022-12-19T15:58:31;16.65;;;8.07;;
21251;SDS011;10784;50.578;17.878;2022-12-19T16:01:04;25.92;;;11.35;;
21251;SDS011;10784;50.578;17.878;2022-12-19T16:03:37;14.15;;;8.02;;
21251;SDS011;10784;50.578;17.878;2022-12-19T16:06:11;25.75;;;8.82;;
21251;SDS011;10784;50.578;17.878;2022-12-19T16:08:44;27.70;;;9.77;;
21251;SDS011;10784;50.578;17.878;2022-12-19T16:11:18;22.17;;;8.90;;
21251;SDS011;10784;50.578;17.878;2022-12-19T16:13:53;17.98;;;8.63;;
21251;SDS011;10784;50.578;17.878;2022-12-19T16:16:26;20.25;;;8.30;;
21251;SDS011;10784;50.578;17.878;2022-12-19T16:19:00;17.50;;;9.23;;
21251;SDS011;10784;50.578;17.878;2022-12-19T16:21:32;25.08;;;11.07;;
21251;SDS011;10784;50.578;17.878;2022-12-19T16:24:05;15.63;;;7.65;;
21251;SDS011;10784;50.578;17.878;2022-12-19T16:26:38;17.27;;;6.18;;
21251;SDS011;10784;50.578;17.878;2022-12-19T16:29:15;18.63;;;7.97;;
21251;SDS011;10784;50.578;17.878;2022-12-19T16:31:50;22.23;;;7.88;;
21251;SDS011;10784;50.578;17.878;2022-12-19T16:34:24;18.38;;;7.97;;
21251;SDS011;10784;50.578;17.878;2022-12-19T16:36:56;20.17;;;7.78;;
21251;SDS011;10784;50.578;17.878;2022-12-19T16:39:29;14.43;;;6.28;;
21251;SDS011;10784;50.578;17.878;2022-12-19T16:42:02;30.88;;;7.97;;
21251;SDS011;10784;50.578;17.878;2022-12-19T16:44:35;15.70;;;7.30;;
21251;SDS011;10784;50.578;17.878;2022-12-19T16:47:10;22.02;;;8.02;;
21251;SDS011;10784;50.578;17.878;2022-12-19T16:49:44;18.20;;;7.22;;
21251;SDS011;10784;50.578;17.878;2022-12-19T16:52:16;15.95;;;7.53;;
21251;SDS011;10784;50.578;17.878;2022-12-19T16:54:49;22.98;;;11.77;;
21251;SDS011;10784;50.578;17.878;2022-12-19T16:57:22;24.83;;;8.57;;
21251;SDS011;10784;50.578;17.878;2022-12-19T16:59:55;20.23;;;10.00;;
21251;SDS011;10784;50.578;17.878;2022-12-19T17:07:49;18.35;;;8.88;;
21251;SDS011;10784;50.578;17.878;2022-12-19T17:10:25;28.02;;;12.90;;
21251;SDS011;10784;50.578;17.878;2022-12-19T17:13:00;18.25;;;9.35;;
21251;SDS011;10784;50.578;17.878;2022-12-19T17:15:34;19.27;;;9.05;;
21251;SDS011;10784;50.578;17.878;2022-12-19T17:18:30;15.73;;;7.72;;
21251;SDS011;10784;50.578;17.878;2022-12-19T17:21:01;18.23;;;7.70;;
21251;SDS011;10784;50.578;17.878;2022-12-19T17:23:34;9.85;;;7.88;;
21251;SDS011;10784;50.578;17.878;2022-12-19T17:26:07;16.88;;;8.02;;
21251;SDS011;10784;50.578;17.878;2022-12-19T17:28:48;18.15;;;8.00;;
21251;SDS011;10784;50.578;17.878;2022-12-19T17:33:54;20.40;;;7.10;;
21251;SDS011;10784;50.578;17.878;2022-12-19T17:36:29;31.92;;;9.18;;
21251;SDS011;10784;50.578;17.878;2022-12-19T17:39:27;16.80;;;8.65;;
21251;SDS011;10784;50.578;17.878;2022-12-19T17:42:03;22.60;;;9.13;;
21251;SDS011;10784;50.578;17.878;2022-12-19T17:44:41;16.77;;;6.05;;
21251;SDS011;10784;50.578;17.878;2022-12-19T17:47:14;16.85;;;7.35;;
21251;SDS011;10784;50.578;17.878;2022-12-19T17:49:47;21.95;;;8.18;;
21251;SDS011;10784;50.578;17.878;2022-12-19T17:52:20;24.52;;;8.27;;
21251;SDS011;10784;50.578;17.878;2022-12-19T17:54:53;21.77;;;8.18;;
21251;SDS011;10784;50.578;17.878;2022-12-19T17:57:26;32.03;;;11.20;;
21251;SDS011;10784;50.578;17.878;2022-12-19T17:59:58;17.30;;;7.80;;